sensor_id;sensor_type;location;lat;lon;timestamp;pressure;altitude;pressure_sealevel;temperature;humidity
72640;BME280;60683;51.730;8.762;2023-08-01T00:01:17;98753.97;;;16.43;95.52
72640;BME280;60683;51.730;8.762;2023-08-01T00:03:44;98746.84;;;16.47;95.85
72640;BME280;60683;51.730;8.762;2023-08-01T00:06:12;98758.19;;;16.49;94.51
72640;BME280;60683;51.730;8.762;2023-08-01T00:08:40;98753.88;;;16.48;95.23
72640;BME280;60683;51.730;8.762;2023-08-01T00:11:08;98748.63;;;16.51;95.45
72640;BME280;60683;51.730;8.762;2023-08-01T00:13:37;98739.69;;;16.51;94.75
72640;BME280;60683;51.730;8.762;2023-08-01T00:16:05;98735.06;;;16.51;95.19
72640;BME280;60683;51.730;8.762;2023-08-01T00:18:33;98724.34;;;16.46;96.19
72640;BME280;60683;51.730;8.762;2023-08-01T00:21:00;98718.81;;;16.38;97.43
72640;BME280;60683;51.730;8.762;2023-08-01T00:23:28;98718.66;;;16.20;99.48
72640;BME280;60683;51.730;8.762;2023-08-01T00:25:55;98706.72;;;16.21;100.00
72640;BME280;60683;51.730;8.762;2023-08-01T00:28:23;98705.41;;;16.19;100.00
72640;BME280;60683;51.730;8.762;2023-08-01T00:31:01;98707.94;;;16.15;100.00
72640;BME280;60683;51.730;8.762;2023-08-01T00:33:29;98712.03;;;16.13;100.00
72640;BME280;60683;51.730;8.762;2023-08-01T00:35:57;98705.53;;;16.14;100.00
72640;BME280;60683;51.730;8.762;2023-08-01T00:38:24;98699.44;;;16.08;100.00
72640;BME280;60683;51.730;8.762;2023-08-01T00:40:52;98703.25;;;16.07;100.00
72640;BME280;60683;51.730;8.762;2023-08-01T00:43:19;98695.03;;;15.99;100.00
72640;BME280;60683;51.730;8.762;2023-08-01T00:45:48;98691.41;;;16.03;100.00
72640;BME280;60683;51.730;8.762;2023-08-01T00:48:17;98692.63;;;15.97;100.00
72640;BME280;60683;51.730;8.762;2023-08-01T00:50:45;98690.00;;;15.92;100.00
72640;BME280;60683;51.730;8.762;2023-08-01T00:53:13;98669.63;;;15.95;100.00
72640;BME280;60683;51.730;8.762;2023-08-01T00:55:41;98670.94;;;15.97;100.00
72640;BME280;60683;51.730;8.762;2023-08-01T00:58:08;98675.34;;;15.93;100.00
72640;BME280;60683;51.730;8.762;2023-08-01T01:00:36;98688.09;;;15.93;100.00
72640;BME280;60683;51.730;8.762;2023-08-01T01:03:05;98706.47;;;15.96;100.00
72640;BME280;60683;51.730;8.762;2023-08-01T01:05:35;98712.09;;;15.85;100.00
72640;BME280;60683;51.730;8.762;2023-08-01T01:08:04;98677.97;;;15.71;100.00
72640;BME280;60683;51.730;8.762;2023-08-01T01:10:32;98674.16;;;15.72;100.00
72640;BME280;60683;51.730;8.762;2023-08-01T01:12:59;98682.69;;;15.65;100.00
72640;BME280;60683;51.730;8.762;2023-08-01T01:15:30;98660.34;;;15.60;100.00
72640;BME280;60683;51.730;8.762;2023-08-01T01:17:59;98655.25;;;15.58;100.00
72640;BME280;60683;51.730;8.762;2023-08-01T01:20:33;98660.84;;;15.62;100.00
72640;BME280;60683;51.730;8.762;2023-08-01T01:23:01;98655.53;;;15.57;100.00
72640;BME280;60683;51.730;8.762;2023-08-01T01:25:31;98646.69;;;15.51;100.00
72640;BME280;60683;51.730;8.762;2023-08-01T01:28:00;98612.38;;;15.46;100.00
72640;BME280;60683;51.730;8.762;2023-08-01T01:30:31;98630.75;;;15.49;100.00
72640;BME280;60683;51.730;8.762;2023-08-01T01:32:59;98635.66;;;15.47;100.00
72640;BME280;60683;51.730;8.762;2023-08-01T01:35:27;98651.91;;;15.47;100.00
72640;BME280;60683;51.730;8.762;2023-08-01T01:37:57;98651.81;;;15.52;100.00
72640;BME280;60683;51.730;8.762;2023-08-01T01:40:28;98654.59;;;15.47;100.00
72640;BME280;60683;51.730;8.762;2023-08-01T01:42:55;98641.16;;;15.42;100.00
72640;BME280;60683;51.730;8.762;2023-08-01T01:45:22;98627.44;;;15.39;100.00
72640;BME280;60683;51.730;8.762;2023-08-01T01:47:50;98631.03;;;15.34;100.00
72640;BME280;60683;51.730;8.762;2023-08-01T01:50:18;98624.91;;;15.42;100.00
72640;BME280;60683;51.730;8.762;2023-08-01T01:52:46;98638.66;;;15.32;100.00
72640;BME280;60683;51.730;8.762;2023-08-01T01:55:16;98630.94;;;15.26;100.00
72640;BME280;60683;51.730;8.762;2023-08-01T01:57:43;98626.00;;;15.14;100.00
72640;BME280;60683;51.730;8.762;2023-08-01T02:00:12;98622.78;;;15.12;100.00
72640;BME280;60683;51.730;8.762;2023-08-01T02:02:40;98614.00;;;15.06;100.00
72640;BME280;60683;51.730;8.762;2023-08-01T02:05:22;98616.28;;;15.13;100.00
72640;BME280;60683;51.730;8.762;2023-08-01T02:07:50;98595.34;;;15.05;100.00
72640;BME280;60683;51.730;8.762;2023-08-01T02:10:19;98585.94;;;15.02;100.00
72640;BME280;60683;51.730;8.762;2023-08-01T02:12:47;98581.81;;;15.05;100.00
72640;BME280;60683;51.730;8.762;2023-08-01T02:15:15;98576.91;;;15.07;100.00
72640;BME280;60683;51.730;8.762;2023-08-01T02:17:42;98570.06;;;15.09;100.00
72640;BME280;60683;51.730;8.762;2023-08-01T02:20:10;98569.25;;;15.09;100.00
72640;BME280;60683;51.730;8.762;2023-08-01T02:22:38;98566.47;;;15.14;100.00
72640;BME280;60683;51.730;8.762;2023-08-01T02:25:05;98567.06;;;15.11;100.00
72640;BME280;60683;51.730;8.762;2023-08-01T02:27:34;98568.16;;;15.10;100.00
72640;BME280;60683;51.730;8.762;2023-08-01T02:30:03;98571.66;;;15.10;100.00
72640;BME280;60683;51.730;8.762;2023-08-01T02:32:31;98580.50;;;15.16;100.00
72640;BME280;60683;51.730;8.762;2023-08-01T02:34:58;98573.38;;;15.20;100.00
72640;BME280;60683;51.730;8.762;2023-08-01T02:37:26;98575.06;;;15.16;100.00
72640;BME280;60683;51.730;8.762;2023-08-01T02:39:54;98569.25;;;15.09;100.00
72640;BME280;60683;51.730;8.762;2023-08-01T02:42:21;98578.38;;;15.13;100.00
72640;BME280;60683;51.730;8.762;2023-08-01T02:44:51;98571.50;;;15.07;100.00
72640;BME280;60683;51.730;8.762;2023-08-01T02:47:19;98558.75;;;15.07;100.00
72640;BME280;60683;51.730;8.762;2023-08-01T02:49:47;98559.25;;;15.09;100.00
72640;BME280;60683;51.730;8.762;2023-08-01T02:52:15;98554.63;;;15.10;100.00
72640;BME280;60683;51.730;8.762;2023-08-01T02:54:44;98549.00;;;15.20;100.00
72640;BME280;60683;51.730;8.762;2023-08-01T02:57:12;98555.13;;;15.26;100.00
72640;BME280;60683;51.730;8.762;2023-08-01T02:59:39;98560.13;;;15.18;100.00
72640;BME280;60683;51.730;8.762;2023-08-01T03:02:08;98557.63;;;15.22;100.00
72640;BME280;60683;51.730;8.762;2023-08-01T03:04:36;98557.84;;;15.12;100.00
72640;BME280;60683;51.730;8.762;2023-08-01T03:07:03;98545.53;;;15.06;100.00
72640;BME280;60683;51.730;8.762;2023-08-01T03:09:32;98551.41;;;15.08;100.00
72640;BME280;60683;51.730;8.762;2023-08-01T03:11:59;98554.03;;;15.13;100.00
72640;BME280;60683;51.730;8.762;2023-08-01T03:14:27;98560.53;;;15.12;100.00
72640;BME280;60683;51.730;8.762;2023-08-01T03:16:54;98562.44;;;15.11;100.00
72640;BME280;60683;51.730;8.762;2023-08-01T03:19:23;98570.25;;;15.13;100.00
72640;BME280;60683;51.730;8.762;2023-08-01T03:21:51;98572.06;;;15.17;100.00
72640;BME280;60683;51.730;8.762;2023-08-01T03:24:19;98569.38;;;15.04;100.00
72640;BME280;60683;51.730;8.762;2023-08-01T03:26:46;98560.16;;;15.05;100.00
72640;BME280;60683;51.730;8.762;2023-08-01T03:29:13;98558.75;;;15.07;100.00
72640;BME280;60683;51.730;8.762;2023-08-01T03:31:42;98567.34;;;15.09;100.00
72640;BME280;60683;51.730;8.762;2023-08-01T03:34:10;98578.59;;;15.03;100.00
72640;BME280;60683;51.730;8.762;2023-08-01T03:36:40;98569.75;;;15.11;100.00
72640;BME280;60683;51.730;8.762;2023-08-01T03:39:07;98567.34;;;15.09;100.00
72640;BME280;60683;51.730;8.762;2023-08-01T03:41:36;98571.59;;;15.02;100.00
72640;BME280;60683;51.730;8.762;2023-08-01T03:44:04;98570.09;;;14.96;100.00
72640;BME280;60683;51.730;8.762;2023-08-01T03:46:31;98563.66;;;14.92;100.00
72640;BME280;60683;51.730;8.762;2023-08-01T03:48:58;98560.16;;;14.91;100.00
72640;BME280;60683;51.730;8.762;2023-08-01T03:51:25;98564.16;;;14.94;100.00
72640;BME280;60683;51.730;8.762;2023-08-01T03:53:54;98561.16;;;14.95;100.00
72640;BME280;60683;51.730;8.762;2023-08-01T03:56:22;98560.88;;;14.97;100.00
72640;BME280;60683;51.730;8.762;2023-08-01T03:58:49;98558.47;;;14.95;100.00
72640;BME280;60683;51.730;8.762;2023-08-01T04:01:16;98552.84;;;14.92;100.00
72640;BME280;60683;51.730;8.762;2023-08-01T04:03:44;98561.34;;;14.85;100.00
72640;BME280;60683;51.730;8.762;2023-08-01T04:06:11;98552.81;;;14.78;100.00
72640;BME280;60683;51.730;8.762;2023-08-01T04:08:42;98550.13;;;14.78;100.00
72640;BME280;60683;51.730;8.762;2023-08-01T04:11:11;98555.22;;;14.79;100.00
72640;BME280;60683;51.730;8.762;2023-08-01T04:13:39;98554.13;;;14.80;100.00
72640;BME280;60683;51.730;8.762;2023-08-01T04:16:07;98555.94;;;14.85;100.00
72640;BME280;60683;51.730;8.762;2023-08-01T04:18:35;98552.03;;;14.77;100.00
72640;BME280;60683;51.730;8.762;2023-08-01T04:21:02;98553.03;;;14.81;100.00
72640;BME280;60683;51.730;8.762;2023-08-01T04:23:30;98551.44;;;14.80;100.00
72640;BME280;60683;51.730;8.762;2023-08-01T04:25:58;98563.06;;;14.81;100.00
72640;BME280;60683;51.730;8.762;2023-08-01T04:28:28;98557.84;;;14.84;100.00
72640;BME280;60683;51.730;8.762;2023-08-01T04:30:55;98553.84;;;14.82;100.00
72640;BME280;60683;51.730;8.762;2023-08-01T04:33:23;98560.06;;;14.82;100.00
72640;BME280;60683;51.730;8.762;2023-08-01T04:35:51;98554.22;;;14.75;100.00
72640;BME280;60683;51.730;8.762;2023-08-01T04:38:19;98556.84;;;14.80;100.00
72640;BME280;60683;51.730;8.762;2023-08-01T04:40:46;98556.53;;;14.82;100.00
72640;BME280;60683;51.730;8.762;2023-08-01T04:43:14;98556.25;;;14.83;100.00
72640;BME280;60683;51.730;8.762;2023-08-01T04:45:43;98552.81;;;14.78;100.00
72640;BME280;60683;51.730;8.762;2023-08-01T04:48:11;98554.63;;;14.82;100.00
72640;BME280;60683;51.730;8.762;2023-08-01T04:50:39;98562.47;;;14.84;100.00
72640;BME280;60683;51.730;8.762;2023-08-01T04:53:07;98547.63;;;14.81;100.00
72640;BME280;60683;51.730;8.762;2023-08-01T04:55:34;98558.16;;;14.83;100.00
72640;BME280;60683;51.730;8.762;2023-08-01T04:58:03;98570.88;;;14.82;100.00
72640;BME280;60683;51.730;8.762;2023-08-01T05:00:30;98567.38;;;14.82;100.00
72640;BME280;60683;51.730;8.762;2023-08-01T05:02:59;98563.66;;;14.78;100.00
72640;BME280;60683;51.730;8.762;2023-08-01T05:05:27;98565.56;;;14.77;100.00
72640;BME280;60683;51.730;8.762;2023-08-01T05:07:54;98563.06;;;14.81;100.00
72640;BME280;60683;51.730;8.762;2023-08-01T05:10:21;98569.47;;;14.85;100.00
72640;BME280;60683;51.730;8.762;2023-08-01T05:12:49;98577.28;;;14.86;100.00
72640;BME280;60683;51.730;8.762;2023-08-01T05:15:16;98579.50;;;14.84;100.00
72640;BME280;60683;51.730;8.762;2023-08-01T05:17:44;98584.41;;;14.82;100.00
72640;BME280;60683;51.730;8.762;2023-08-01T05:20:13;98580.38;;;14.80;100.00
72640;BME280;60683;51.730;8.762;2023-08-01T05:22:41;98583.38;;;14.78;100.00
72640;BME280;60683;51.730;8.762;2023-08-01T05:25:11;98589.91;;;14.77;100.00
72640;BME280;60683;51.730;8.762;2023-08-01T05:27:39;98594.41;;;14.82;100.00
72640;BME280;60683;51.730;8.762;2023-08-01T05:30:07;98592.59;;;14.77;100.00
72640;BME280;60683;51.730;8.762;2023-08-01T05:32:35;98594.22;;;14.78;100.00
72640;BME280;60683;51.730;8.762;2023-08-01T05:35:04;98594.72;;;14.80;100.00
72640;BME280;60683;51.730;8.762;2023-08-01T05:37:33;98605.44;;;14.85;100.00
72640;BME280;60683;51.730;8.762;2023-08-01T05:40:01;98603.16;;;14.93;100.00
72640;BME280;60683;51.730;8.762;2023-08-01T05:42:30;98600.56;;;15.01;100.00
72640;BME280;60683;51.730;8.762;2023-08-01T05:44:58;98609.97;;;15.04;100.00
72640;BME280;60683;51.730;8.762;2023-08-01T05:47:26;98609.06;;;15.08;100.00
72640;BME280;60683;51.730;8.762;2023-08-01T05:49:53;98608.38;;;15.03;100.00
72640;BME280;60683;51.730;8.762;2023-08-01T05:52:21;98607.78;;;15.06;100.00
72640;BME280;60683;51.730;8.762;2023-08-01T05:54:50;98607.28;;;15.04;100.00
72640;BME280;60683;51.730;8.762;2023-08-01T05:57:17;98607.28;;;15.04;100.00
72640;BME280;60683;51.730;8.762;2023-08-01T05:59:45;98610.38;;;14.97;100.00
72640;BME280;60683;51.730;8.762;2023-08-01T06:02:12;98609.78;;;15.00;100.00
72640;BME280;60683;51.730;8.762;2023-08-01T06:04:40;98608.97;;;15.00;100.00
72640;BME280;60683;51.730;8.762;2023-08-01T06:07:07;98614.19;;;14.96;100.00
72640;BME280;60683;51.730;8.762;2023-08-01T06:09:35;98627.41;;;14.98;100.00
72640;BME280;60683;51.730;8.762;2023-08-01T06:12:05;98637.63;;;14.87;100.00
72640;BME280;60683;51.730;8.762;2023-08-01T06:14:32;98638.38;;;14.74;100.00
72640;BME280;60683;51.730;8.762;2023-08-01T06:17:00;98641.53;;;14.62;100.00
72640;BME280;60683;51.730;8.762;2023-08-01T06:19:28;98652.94;;;14.59;100.00
72640;BME280;60683;51.730;8.762;2023-08-01T06:21:55;98642.13;;;14.59;100.00
72640;BME280;60683;51.730;8.762;2023-08-01T06:24:23;98650.75;;;14.61;100.00
72640;BME280;60683;51.730;8.762;2023-08-01T06:26:50;98641.94;;;14.55;100.00
72640;BME280;60683;51.730;8.762;2023-08-01T06:29:19;98648.63;;;14.58;100.00
72640;BME280;60683;51.730;8.762;2023-08-01T06:31:46;98655.78;;;14.54;100.00
72640;BME280;60683;51.730;8.762;2023-08-01T06:34:14;98657.38;;;14.55;100.00
72640;BME280;60683;51.730;8.762;2023-08-01T06:36:41;98649.84;;;14.52;100.00
72640;BME280;60683;51.730;8.762;2023-08-01T06:39:09;98654.16;;;14.53;100.00
72640;BME280;60683;51.730;8.762;2023-08-01T06:41:37;98658.47;;;14.54;100.00
72640;BME280;60683;51.730;8.762;2023-08-01T06:44:04;98659.66;;;14.48;100.00
72640;BME280;60683;51.730;8.762;2023-08-01T06:46:34;98674.06;;;14.57;100.00
72640;BME280;60683;51.730;8.762;2023-08-01T06:49:02;98666.47;;;14.59;100.00
72640;BME280;60683;51.730;8.762;2023-08-01T06:51:29;98670.19;;;14.63;100.00
72640;BME280;60683;51.730;8.762;2023-08-01T06:53:57;98670.41;;;14.67;100.00
72640;BME280;60683;51.730;8.762;2023-08-01T06:56:24;98678.22;;;14.68;100.00
72640;BME280;60683;51.730;8.762;2023-08-01T06:58:52;98673.53;;;14.74;100.00
72640;BME280;60683;51.730;8.762;2023-08-01T07:01:20;98675.28;;;14.83;100.00
72640;BME280;60683;51.730;8.762;2023-08-01T07:03:50;98688.72;;;14.88;100.00
72640;BME280;60683;51.730;8.762;2023-08-01T07:06:18;98681.44;;;15.03;100.00
72640;BME280;60683;51.730;8.762;2023-08-01T07:08:46;98673.13;;;15.13;100.00
72640;BME280;60683;51.730;8.762;2023-08-01T07:11:13;98678.06;;;15.24;100.00
72640;BME280;60683;51.730;8.762;2023-08-01T07:13:41;98679.78;;;15.34;100.00
72640;BME280;60683;51.730;8.762;2023-08-01T07:16:08;98687.59;;;15.36;100.00
72640;BME280;60683;51.730;8.762;2023-08-01T07:18:36;98688.28;;;15.28;99.60
72640;BME280;60683;51.730;8.762;2023-08-01T07:21:04;98688.91;;;15.38;99.83
72640;BME280;60683;51.730;8.762;2023-08-01T07:23:34;98687.91;;;15.34;99.18
72640;BME280;60683;51.730;8.762;2023-08-01T07:26:02;98690.81;;;15.38;99.18
72640;BME280;60683;51.730;8.762;2023-08-01T07:28:29;98698.13;;;15.37;99.20
72640;BME280;60683;51.730;8.762;2023-08-01T07:31:00;98699.25;;;15.64;98.13
72640;BME280;60683;51.730;8.762;2023-08-01T07:33:28;98686.41;;;15.69;96.66
72640;BME280;60683;51.730;8.762;2023-08-01T07:35:55;98690.63;;;15.75;97.05
72640;BME280;60683;51.730;8.762;2023-08-01T07:38:24;98701.06;;;15.68;96.93
72640;BME280;60683;51.730;8.762;2023-08-01T07:40:54;98698.16;;;15.65;96.38
72640;BME280;60683;51.730;8.762;2023-08-01T07:43:22;98687.91;;;15.62;96.88
72640;BME280;60683;51.730;8.762;2023-08-01T07:45:49;98688.53;;;15.59;96.67
72640;BME280;60683;51.730;8.762;2023-08-01T07:48:18;98695.06;;;15.58;96.65
72640;BME280;60683;51.730;8.762;2023-08-01T07:50:45;98696.84;;;15.62;97.10
72640;BME280;60683;51.730;8.762;2023-08-01T07:53:12;98698.75;;;15.62;97.55
72640;BME280;60683;51.730;8.762;2023-08-01T07:55:41;98704.88;;;15.53;97.08
72640;BME280;60683;51.730;8.762;2023-08-01T07:58:09;98694.53;;;15.42;97.75
72640;BME280;60683;51.730;8.762;2023-08-01T08:00:36;98685.50;;;15.46;98.74
72640;BME280;60683;51.730;8.762;2023-08-01T08:03:04;98689.81;;;15.47;99.01
72640;BME280;60683;51.730;8.762;2023-08-01T08:05:34;98688.63;;;15.53;98.14
72640;BME280;60683;51.730;8.762;2023-08-01T08:08:05;98694.34;;;15.66;96.81
72640;BME280;60683;51.730;8.762;2023-08-01T08:10:33;98698.75;;;15.89;96.27
72640;BME280;60683;51.730;8.762;2023-08-01T08:13:02;98701.41;;;16.16;96.01
72640;BME280;60683;51.730;8.762;2023-08-01T08:15:30;98711.81;;;16.37;95.62
72640;BME280;60683;51.730;8.762;2023-08-01T08:18:00;98694.66;;;16.28;93.07
72640;BME280;60683;51.730;8.762;2023-08-01T08:20:30;98695.53;;;16.37;92.25
72640;BME280;60683;51.730;8.762;2023-08-01T08:22:58;98694.69;;;16.50;90.97
72640;BME280;60683;51.730;8.762;2023-08-01T08:25:25;98693.72;;;16.91;91.71
72640;BME280;60683;51.730;8.762;2023-08-01T08:27:53;98687.97;;;17.23;90.01
72640;BME280;60683;51.730;8.762;2023-08-01T08:30:22;98689.66;;;17.41;88.96
72640;BME280;60683;51.730;8.762;2023-08-01T08:32:50;98686.41;;;17.62;88.47
72640;BME280;60683;51.730;8.762;2023-08-01T08:35:17;98689.34;;;17.43;86.20
72640;BME280;60683;51.730;8.762;2023-08-01T08:37:44;98692.16;;;17.29;87.05
72640;BME280;60683;51.730;8.762;2023-08-01T08:40:12;98700.75;;;16.92;88.43
72640;BME280;60683;51.730;8.762;2023-08-01T08:42:41;98700.63;;;16.74;88.68
72640;BME280;60683;51.730;8.762;2023-08-01T08:45:10;98706.44;;;16.81;90.53
72640;BME280;60683;51.730;8.762;2023-08-01T08:47:41;98707.41;;;16.63;91.29
72640;BME280;60683;51.730;8.762;2023-08-01T08:50:10;98710.03;;;16.54;92.78
72640;BME280;60683;51.730;8.762;2023-08-01T08:52:40;98706.84;;;16.52;92.83
72640;BME280;60683;51.730;8.762;2023-08-01T08:55:08;98716.25;;;16.19;91.42
72640;BME280;60683;51.730;8.762;2023-08-01T08:57:36;98714.84;;;16.21;92.66
72640;BME280;60683;51.730;8.762;2023-08-01T09:00:06;98721.28;;;16.12;93.47
72640;BME280;60683;51.730;8.762;2023-08-01T09:02:34;98716.66;;;16.26;93.23
72640;BME280;60683;51.730;8.762;2023-08-01T09:05:06;98719.66;;;16.25;93.03
72640;BME280;60683;51.730;8.762;2023-08-01T09:07:39;98716.50;;;16.09;92.89
72640;BME280;60683;51.730;8.762;2023-08-01T09:10:08;98720.31;;;16.08;93.42
72640;BME280;60683;51.730;8.762;2023-08-01T09:12:36;98717.63;;;15.94;93.00
72640;BME280;60683;51.730;8.762;2023-08-01T09:15:05;98721.13;;;16.08;92.71
72640;BME280;60683;51.730;8.762;2023-08-01T09:17:34;98718.56;;;16.26;93.20
72640;BME280;60683;51.730;8.762;2023-08-01T09:20:07;98716.69;;;16.48;92.14
72640;BME280;60683;51.730;8.762;2023-08-01T09:22:42;98713.28;;;16.79;90.22
72640;BME280;60683;51.730;8.762;2023-08-01T09:25:10;98717.84;;;16.92;90.64
72640;BME280;60683;51.730;8.762;2023-08-01T09:27:38;98708.34;;;17.03;91.27
72640;BME280;60683;51.730;8.762;2023-08-01T09:30:07;98698.03;;;17.14;89.46
72640;BME280;60683;51.730;8.762;2023-08-01T09:32:35;98711.19;;;17.29;87.46
72640;BME280;60683;51.730;8.762;2023-08-01T09:35:03;98704.31;;;17.63;87.96
72640;BME280;60683;51.730;8.762;2023-08-01T09:37:40;98705.31;;;17.75;85.89
72640;BME280;60683;51.730;8.762;2023-08-01T09:40:08;98705.25;;;17.58;83.47
72640;BME280;60683;51.730;8.762;2023-08-01T09:42:39;98707.94;;;17.49;83.67
72640;BME280;60683;51.730;8.762;2023-08-01T09:45:12;98706.25;;;17.71;82.71
72640;BME280;60683;51.730;8.762;2023-08-01T09:47:41;98707.75;;;17.85;82.89
72640;BME280;60683;51.730;8.762;2023-08-01T09:50:09;98700.63;;;17.59;80.83
72640;BME280;60683;51.730;8.762;2023-08-01T09:52:41;98705.69;;;17.51;80.78
72640;BME280;60683;51.730;8.762;2023-08-01T09:55:08;98705.94;;;17.33;81.23
72640;BME280;60683;51.730;8.762;2023-08-01T09:57:37;98707.41;;;17.08;83.65
72640;BME280;60683;51.730;8.762;2023-08-01T10:00:08;98707.91;;;17.10;84.74
72640;BME280;60683;51.730;8.762;2023-08-01T10:02:37;98706.91;;;17.37;82.66
72640;BME280;60683;51.730;8.762;2023-08-01T10:05:06;98712.59;;;17.58;83.44
72640;BME280;60683;51.730;8.762;2023-08-01T10:07:34;98705.06;;;17.94;82.98
72640;BME280;60683;51.730;8.762;2023-08-01T10:10:06;98705.03;;;17.85;81.62
72640;BME280;60683;51.730;8.762;2023-08-01T10:12:35;98714.66;;;18.00;81.84
72640;BME280;60683;51.730;8.762;2023-08-01T10:15:05;98719.19;;;18.31;80.32
72640;BME280;60683;51.730;8.762;2023-08-01T10:17:34;98728.66;;;18.42;79.46
72640;BME280;60683;51.730;8.762;2023-08-01T10:20:03;98716.63;;;18.43;78.58
72640;BME280;60683;51.730;8.762;2023-08-01T10:22:31;98713.78;;;18.82;79.34
72640;BME280;60683;51.730;8.762;2023-08-01T10:24:58;98718.88;;;18.93;77.57
72640;BME280;60683;51.730;8.762;2023-08-01T10:27:27;98711.47;;;19.19;74.96
72640;BME280;60683;51.730;8.762;2023-08-01T10:29:58;98708.69;;;19.36;74.88
72640;BME280;60683;51.730;8.762;2023-08-01T10:32:31;98712.28;;;19.20;73.83
72640;BME280;60683;51.730;8.762;2023-08-01T10:34:59;98704.81;;;19.55;74.02
72640;BME280;60683;51.730;8.762;2023-08-01T10:37:27;98687.19;;;19.43;72.78
72640;BME280;60683;51.730;8.762;2023-08-01T10:40:06;98702.56;;;19.57;71.59
72640;BME280;60683;51.730;8.762;2023-08-01T10:42:39;98694.75;;;19.29;69.56
72640;BME280;60683;51.730;8.762;2023-08-01T10:45:08;98707.84;;;19.44;69.65
72640;BME280;60683;51.730;8.762;2023-08-01T10:47:35;98689.78;;;19.31;69.67
72640;BME280;60683;51.730;8.762;2023-08-01T10:50:13;98698.34;;;19.21;71.07
72640;BME280;60683;51.730;8.762;2023-08-01T10:52:41;98689.91;;;19.52;69.79
72640;BME280;60683;51.730;8.762;2023-08-01T10:55:09;98678.81;;;19.57;68.61
72640;BME280;60683;51.730;8.762;2023-08-01T10:57:47;98689.34;;;19.67;68.96
72640;BME280;60683;51.730;8.762;2023-08-01T11:00:16;98688.34;;;20.01;69.95
72640;BME280;60683;51.730;8.762;2023-08-01T11:02:49;98691.97;;;20.35;66.96
72640;BME280;60683;51.730;8.762;2023-08-01T11:05:18;98699.50;;;20.38;64.82
72640;BME280;60683;51.730;8.762;2023-08-01T11:07:53;98690.22;;;20.30;65.66
72640;BME280;60683;51.730;8.762;2023-08-01T11:10:22;98706.59;;;20.30;65.01
72640;BME280;60683;51.730;8.762;2023-08-01T11:12:51;98701.41;;;20.16;65.51
72640;BME280;60683;51.730;8.762;2023-08-01T11:15:19;98694.31;;;20.24;64.85
72640;BME280;60683;51.730;8.762;2023-08-01T11:17:48;98697.72;;;20.42;63.32
72640;BME280;60683;51.730;8.762;2023-08-01T11:20:18;98677.84;;;20.33;63.81
72640;BME280;60683;51.730;8.762;2023-08-01T11:22:52;98697.19;;;20.48;62.17
72640;BME280;60683;51.730;8.762;2023-08-01T11:25:21;98704.25;;;20.49;61.68
72640;BME280;60683;51.730;8.762;2023-08-01T11:28:03;98712.25;;;20.88;60.56
72640;BME280;60683;51.730;8.762;2023-08-01T11:30:31;98711.16;;;20.68;59.33
72640;BME280;60683;51.730;8.762;2023-08-01T11:32:59;98721.97;;;20.35;61.37
72640;BME280;60683;51.730;8.762;2023-08-01T11:35:26;98717.41;;;19.68;63.39
72640;BME280;60683;51.730;8.762;2023-08-01T11:37:54;98729.44;;;19.20;64.74
72640;BME280;60683;51.730;8.762;2023-08-01T11:40:23;98726.56;;;18.91;66.75
72640;BME280;60683;51.730;8.762;2023-08-01T11:42:50;98744.38;;;18.71;70.47
72640;BME280;60683;51.730;8.762;2023-08-01T11:45:20;98749.75;;;18.28;75.26
72640;BME280;60683;51.730;8.762;2023-08-01T11:47:48;98749.75;;;17.71;79.17
72640;BME280;60683;51.730;8.762;2023-08-01T11:50:20;98766.84;;;17.40;80.11
72640;BME280;60683;51.730;8.762;2023-08-01T11:52:49;98768.13;;;17.12;81.73
72640;BME280;60683;51.730;8.762;2023-08-01T11:55:21;98771.09;;;17.02;83.92
72640;BME280;60683;51.730;8.762;2023-08-01T11:57:53;98768.13;;;16.90;83.07
72640;BME280;60683;51.730;8.762;2023-08-01T12:00:23;98764.78;;;17.15;82.93
72640;BME280;60683;51.730;8.762;2023-08-01T12:02:51;98762.25;;;17.49;84.21
72640;BME280;60683;51.730;8.762;2023-08-01T12:05:22;98752.88;;;17.56;81.99
72640;BME280;60683;51.730;8.762;2023-08-01T12:07:51;98757.59;;;17.72;82.10
72640;BME280;60683;51.730;8.762;2023-08-01T12:10:18;98761.31;;;17.85;80.14
72640;BME280;60683;51.730;8.762;2023-08-01T12:12:46;98759.66;;;18.24;80.79
72640;BME280;60683;51.730;8.762;2023-08-01T12:15:14;98761.97;;;18.99;76.52
72640;BME280;60683;51.730;8.762;2023-08-01T12:17:43;98768.19;;;19.81;75.34
72640;BME280;60683;51.730;8.762;2023-08-01T12:20:11;98761.19;;;19.71;69.17
72640;BME280;60683;51.730;8.762;2023-08-01T12:22:39;98784.50;;;19.34;68.15
72640;BME280;60683;51.730;8.762;2023-08-01T12:25:07;98777.16;;;18.57;70.34
72640;BME280;60683;51.730;8.762;2023-08-01T12:27:34;98792.94;;;18.29;72.26
72640;BME280;60683;51.730;8.762;2023-08-01T12:30:02;98782.63;;;17.92;74.61
72640;BME280;60683;51.730;8.762;2023-08-01T12:32:30;98812.84;;;17.37;77.53
72640;BME280;60683;51.730;8.762;2023-08-01T12:34:59;98821.25;;;17.04;80.45
72640;BME280;60683;51.730;8.762;2023-08-01T12:37:27;98823.03;;;16.73;81.65
72640;BME280;60683;51.730;8.762;2023-08-01T12:39:54;98814.53;;;16.66;83.59
72640;BME280;60683;51.730;8.762;2023-08-01T12:42:22;98815.41;;;16.75;83.54
72640;BME280;60683;51.730;8.762;2023-08-01T12:44:49;98821.91;;;16.87;82.62
72640;BME280;60683;51.730;8.762;2023-08-01T12:47:16;98821.13;;;17.09;82.86
72640;BME280;60683;51.730;8.762;2023-08-01T12:49:44;98819.91;;;17.69;82.92
72640;BME280;60683;51.730;8.762;2023-08-01T12:52:23;98813.91;;;18.29;78.01
72640;BME280;60683;51.730;8.762;2023-08-01T12:54:51;98821.34;;;18.54;78.69
72640;BME280;60683;51.730;8.762;2023-08-01T12:57:19;98829.41;;;18.94;76.11
72640;BME280;60683;51.730;8.762;2023-08-01T12:59:46;98814.84;;;19.07;75.30
72640;BME280;60683;51.730;8.762;2023-08-01T13:02:14;98822.34;;;18.84;74.49